createdAt,value
2018-08-23T00:01:27.649Z,20.10
2018-08-23T00:03:58.175Z,20.10
2018-08-23T00:06:26.574Z,20.00
2018-08-23T00:08:57.487Z,20.00
2018-08-23T00:11:28.631Z,20.00
2018-08-23T00:13:57.088Z,20.00
2018-08-23T00:16:31.668Z,19.90
2018-08-23T00:19:00.201Z,20.00
2018-08-23T00:21:29.011Z,20.00
2018-08-23T00:24:13.681Z,20.00
2018-08-23T00:26:45.307Z,20.00
2018-08-23T00:29:22.728Z,20.00
2018-08-23T00:31:53.589Z,20.00
2018-08-23T00:34:25.607Z,20.00
2018-08-23T00:36:54.329Z,20.00
2018-08-23T00:39:23.302Z,20.00
2018-08-23T00:41:56.980Z,19.90
2018-08-23T00:44:25.342Z,19.90
2018-08-23T00:46:55.476Z,19.80
2018-08-23T00:49:28.158Z,19.80
2018-08-23T00:51:56.533Z,19.90
2018-08-23T00:54:25.710Z,19.80
2018-08-23T00:56:54.127Z,19.80
2018-08-23T00:59:22.555Z,19.80
2018-08-23T01:02:04.222Z,19.80
2018-08-23T01:04:37.499Z,19.80
2018-08-23T01:07:06.213Z,19.70
2018-08-23T01:09:34.666Z,19.70
2018-08-23T01:12:03.096Z,19.70
2018-08-23T01:14:31.526Z,19.70
2018-08-23T01:17:09.251Z,19.70
2018-08-23T01:19:42.913Z,19.60
2018-08-23T01:22:11.284Z,19.50
2018-08-23T01:24:39.774Z,19.50
2018-08-23T01:27:15.507Z,19.50
2018-08-23T01:29:44.077Z,19.50
2018-08-23T01:32:17.856Z,19.50
2018-08-23T01:34:46.235Z,19.40
2018-08-23T01:37:26.339Z,19.60
2018-08-23T01:39:54.732Z,19.40
2018-08-23T01:42:27.766Z,19.40
2018-08-23T01:44:56.139Z,19.30
2018-08-23T01:47:24.614Z,19.20
2018-08-23T01:49:53.044Z,19.20
2018-08-23T01:52:21.474Z,19.30
2018-08-23T01:54:49.850Z,19.20
2018-08-23T01:57:22.110Z,19.20
2018-08-23T01:59:57.247Z,19.10
2018-08-23T02:02:25.674Z,19.10
2018-08-23T02:04:54.066Z,19.10
2018-08-23T02:07:22.503Z,19.10
2018-08-23T02:09:50.867Z,19.10
2018-08-23T02:12:19.253Z,19.10
2018-08-23T02:14:47.644Z,18.90
2018-08-23T02:17:16.064Z,19.00
2018-08-23T02:19:47.020Z,18.90
2018-08-23T02:22:15.475Z,18.90
2018-08-23T02:24:47.162Z,18.90
2018-08-23T02:27:16.567Z,18.90
2018-08-23T02:29:47.555Z,18.90
2018-08-23T02:32:15.951Z,18.80
2018-08-23T02:34:45.604Z,18.80
2018-08-23T02:37:15.125Z,18.70
2018-08-23T02:39:44.647Z,18.70
2018-08-23T02:42:15.641Z,18.60
2018-08-23T02:44:45.085Z,18.60
2018-08-23T02:47:14.159Z,18.70
2018-08-23T02:49:43.252Z,18.70
2018-08-23T02:52:11.684Z,18.70
2018-08-23T02:54:40.045Z,18.70
2018-08-23T02:57:11.124Z,18.60
2018-08-23T02:59:39.502Z,18.50
2018-08-23T03:02:12.946Z,18.40
2018-08-23T03:04:41.352Z,18.40
2018-08-23T03:07:09.829Z,18.50
2018-08-23T03:09:45.201Z,18.40
2018-08-23T03:12:16.389Z,18.30
2018-08-23T03:14:44.747Z,18.30
2018-08-23T03:17:15.640Z,18.30
2018-08-23T03:19:59.381Z,18.30
2018-08-23T03:22:28.168Z,18.30
2018-08-23T03:24:57.443Z,18.20
2018-08-23T03:27:25.951Z,18.20
2018-08-23T03:29:54.408Z,18.20
2018-08-23T03:32:22.803Z,18.20
2018-08-23T03:34:51.159Z,18.30
2018-08-23T03:37:19.993Z,18.30
2018-08-23T03:39:48.584Z,18.30
2018-08-23T03:42:16.952Z,18.20
2018-08-23T03:44:45.439Z,18.20
2018-08-23T03:47:14.509Z,18.20
2018-08-23T03:49:46.845Z,18.20
2018-08-23T03:52:17.371Z,18.20
2018-08-23T03:54:56.130Z,18.20
2018-08-23T03:57:28.801Z,18.20
2018-08-23T03:59:57.238Z,18.20
2018-08-23T04:02:25.744Z,18.20
2018-08-23T04:05:06.347Z,18.20
2018-08-23T04:07:35.365Z,18.20
2018-08-23T04:10:03.885Z,18.20
2018-08-23T04:12:32.496Z,18.20
2018-08-23T04:15:15.059Z,18.20
2018-08-23T04:17:43.613Z,18.20
2018-08-23T04:20:12.169Z,18.20
2018-08-23T04:22:41.119Z,18.20
2018-08-23T04:25:09.534Z,18.30
2018-08-23T04:27:37.980Z,18.30
2018-08-23T04:30:07.239Z,18.30
2018-08-23T04:32:42.977Z,18.30
2018-08-23T04:35:13.116Z,18.40
2018-08-23T04:37:41.513Z,18.40
2018-08-23T04:40:11.508Z,18.50
2018-08-23T04:42:39.858Z,18.50
2018-08-23T04:45:13.467Z,18.50
2018-08-23T04:47:52.106Z,18.60
2018-08-23T04:50:20.849Z,18.70
2018-08-23T04:52:49.276Z,18.70
2018-08-23T04:55:17.681Z,18.70
2018-08-23T04:57:46.044Z,18.70
2018-08-23T05:00:14.571Z,18.80
2018-08-23T05:02:43.048Z,18.80
2018-08-23T05:05:11.541Z,18.90
2018-08-23T05:07:39.966Z,19.00
2018-08-23T05:10:08.427Z,19.10
2018-08-23T05:12:36.817Z,19.20
2018-08-23T05:15:05.525Z,19.30
2018-08-23T05:17:33.898Z,19.40
2018-08-23T05:20:02.295Z,19.40
2018-08-23T05:22:30.667Z,19.50
2018-08-23T05:25:03.355Z,19.50
2018-08-23T05:27:31.992Z,19.50
2018-08-23T05:30:00.373Z,19.60
2018-08-23T05:32:28.816Z,19.70
2018-08-23T05:34:57.503Z,19.70
2018-08-23T05:37:26.102Z,19.80
2018-08-23T05:39:54.815Z,19.90
2018-08-23T05:42:35.097Z,20.00
2018-08-23T05:45:03.601Z,20.10
2018-08-23T05:47:33.238Z,20.10
2018-08-23T05:50:01.973Z,20.20
2018-08-23T05:52:30.464Z,20.30
2018-08-23T05:54:58.905Z,20.40
2018-08-23T05:57:27.340Z,20.50
2018-08-23T05:59:55.829Z,20.60
2018-08-23T06:02:24.365Z,20.70
2018-08-23T06:04:53.392Z,20.80
2018-08-23T06:07:21.797Z,21.00
2018-08-23T06:09:50.278Z,21.00
2018-08-23T06:12:18.715Z,21.00
2018-08-23T06:14:49.227Z,21.00
2018-08-23T06:17:17.604Z,21.10
2018-08-23T06:19:46.099Z,21.20
2018-08-23T06:22:14.529Z,21.40
2018-08-23T06:24:42.960Z,21.50
2018-08-23T06:27:12.015Z,21.60
2018-08-23T06:29:41.313Z,21.80
2018-08-23T06:32:10.719Z,21.90
2018-08-23T06:34:42.399Z,22.00
2018-08-23T06:37:10.825Z,22.00
2018-08-23T06:39:40.910Z,22.20
2018-08-23T06:42:09.297Z,22.40
2018-08-23T06:44:54.540Z,22.40
2018-08-23T06:47:25.372Z,22.50
2018-08-23T06:49:54.613Z,22.60
2018-08-23T06:52:32.103Z,22.70
2018-08-23T06:55:00.471Z,22.80
2018-08-23T06:57:39.008Z,22.90
2018-08-23T07:00:07.387Z,23.10
2018-08-23T07:02:35.831Z,23.20
2018-08-23T07:05:04.200Z,23.40
2018-08-23T07:07:32.605Z,23.40
2018-08-23T07:10:01.148Z,23.60
2018-08-23T07:12:29.909Z,23.70
2018-08-23T07:14:58.372Z,23.80
2018-08-23T07:17:27.426Z,24.10
2018-08-23T07:20:00.040Z,24.10
2018-08-23T07:22:28.544Z,24.40
2018-08-23T07:24:57.999Z,24.70
2018-08-23T07:27:26.409Z,24.80
2018-08-23T07:29:57.302Z,25.00
2018-08-23T07:32:26.820Z,25.10
2018-08-23T07:35:02.362Z,25.30
2018-08-23T07:37:32.226Z,25.30
2018-08-23T07:40:06.097Z,25.60
2018-08-23T07:42:35.447Z,25.90
2018-08-23T07:45:03.947Z,26.10
2018-08-23T07:47:33.224Z,26.40
2018-08-23T07:50:02.577Z,26.40
2018-08-23T07:52:32.185Z,26.40
2018-08-23T07:55:02.453Z,26.70
2018-08-23T07:57:31.820Z,27.10
2018-08-23T08:00:01.538Z,27.20
2018-08-23T08:02:30.262Z,27.10
2018-08-23T08:04:59.327Z,27.40
2018-08-23T08:07:29.873Z,27.60
2018-08-23T08:10:00.443Z,27.70
2018-08-23T08:12:39.193Z,27.80
2018-08-23T08:15:11.886Z,28.00
2018-08-23T08:17:40.198Z,28.20
2018-08-23T08:20:10.486Z,28.40
2018-08-23T08:22:39.300Z,28.60
2018-08-23T08:25:24.101Z,28.80
2018-08-23T08:27:52.478Z,28.90
2018-08-23T08:30:41.589Z,29.00
2018-08-23T08:33:11.717Z,29.10
2018-08-23T08:35:43.260Z,29.40
2018-08-23T08:38:11.772Z,29.60
2018-08-23T08:40:40.181Z,29.50
2018-08-23T08:43:08.751Z,29.70
2018-08-23T08:45:37.111Z,29.70
2018-08-23T08:48:20.579Z,29.90
2018-08-23T08:51:05.734Z,30.00
2018-08-23T08:53:34.415Z,30.10
2018-08-23T08:56:02.819Z,30.10
2018-08-23T08:58:31.205Z,30.20
2018-08-23T09:00:59.580Z,30.30
2018-08-23T09:03:32.400Z,30.60
2018-08-23T09:06:01.596Z,30.80
2018-08-23T09:08:30.008Z,30.90
2018-08-23T09:10:58.386Z,30.80
2018-08-23T09:13:32.191Z,30.60
2018-08-23T09:16:05.146Z,30.80
2018-08-23T09:18:33.605Z,31.00
2018-08-23T09:21:01.934Z,31.40
2018-08-23T09:23:30.401Z,31.60
2018-08-23T09:25:58.808Z,31.60
2018-08-23T09:28:27.485Z,31.50
2018-08-23T09:30:55.994Z,31.60
2018-08-23T09:33:25.684Z,31.80
2018-08-23T09:35:54.037Z,31.80
2018-08-23T09:38:22.477Z,31.90
2018-08-23T09:40:51.084Z,31.80
2018-08-23T09:43:19.512Z,32.20
2018-08-23T09:45:47.918Z,32.70
2018-08-23T09:48:16.391Z,32.90
2018-08-23T09:50:44.791Z,33.20
2018-08-23T09:53:19.322Z,33.30
2018-08-23T09:55:48.307Z,33.30
2018-08-23T09:58:24.914Z,33.30
2018-08-23T10:00:59.409Z,33.30
2018-08-23T10:03:34.110Z,33.60
2018-08-23T10:06:08.339Z,33.60
2018-08-23T10:08:42.062Z,33.70
2018-08-23T10:11:20.535Z,33.70
2018-08-23T10:13:54.857Z,33.90
2018-08-23T10:16:28.639Z,33.80
2018-08-23T10:18:59.059Z,33.50
2018-08-23T10:21:32.938Z,33.30
2018-08-23T10:24:15.351Z,33.50
2018-08-23T10:26:43.729Z,33.60
2018-08-23T10:29:12.101Z,33.80
2018-08-23T10:31:40.558Z,34.40
2018-08-23T10:34:08.926Z,34.70
2018-08-23T10:36:37.315Z,34.90
2018-08-23T10:39:08.618Z,34.60
2018-08-23T10:41:37.011Z,34.60
2018-08-23T10:44:05.402Z,34.20
2018-08-23T10:46:39.154Z,34.10
2018-08-23T10:49:07.524Z,34.40
2018-08-23T10:51:35.986Z,34.50
2018-08-23T10:54:04.339Z,34.70
2018-08-23T10:56:32.766Z,34.70
2018-08-23T10:59:01.207Z,34.90
2018-08-23T11:01:29.575Z,34.70
2018-08-23T11:04:02.186Z,34.60
2018-08-23T11:06:31.197Z,35.00
2018-08-23T11:09:04.943Z,34.90
2018-08-23T11:11:34.901Z,35.00
2018-08-23T11:14:08.605Z,35.20
2018-08-23T11:16:42.451Z,35.50
2018-08-23T11:19:16.288Z,35.80
2018-08-23T11:21:44.677Z,36.00
2018-08-23T11:24:13.079Z,36.00
2018-08-23T11:26:41.523Z,35.80
2018-08-23T11:29:09.962Z,36.00
2018-08-23T11:31:38.343Z,36.20
2018-08-23T11:34:06.971Z,35.90
2018-08-23T11:36:35.335Z,36.00
2018-08-23T11:39:03.885Z,36.50
2018-08-23T11:41:32.266Z,36.30
2018-08-23T11:44:00.643Z,36.30
2018-08-23T11:46:28.996Z,36.30
2018-08-23T11:48:57.483Z,36.20
2018-08-23T11:51:25.870Z,35.90
2018-08-23T11:53:54.251Z,36.00
2018-08-23T11:56:22.654Z,36.20
2018-08-23T11:58:51.035Z,36.30
2018-08-23T12:01:19.497Z,36.40
2018-08-23T12:03:47.877Z,36.60
2018-08-23T12:06:16.991Z,36.50
2018-08-23T12:08:45.364Z,36.70
2018-08-23T12:11:13.754Z,37.00
2018-08-23T12:13:48.186Z,37.50
2018-08-23T12:16:16.543Z,37.50
2018-08-23T12:18:44.946Z,37.60
2018-08-23T12:21:13.322Z,37.60
2018-08-23T12:23:41.668Z,37.80
2018-08-23T12:26:10.157Z,37.60
2018-08-23T12:28:43.965Z,37.30
2018-08-23T12:31:12.386Z,36.70
2018-08-23T12:33:40.834Z,36.60
2018-08-23T12:36:10.566Z,36.90
2018-08-23T12:38:44.251Z,37.30
2018-08-23T12:41:18.037Z,37.10
2018-08-23T12:43:50.217Z,37.30
2018-08-23T12:46:18.793Z,37.00
2018-08-23T12:48:47.507Z,37.00
2018-08-23T12:51:15.932Z,37.20
2018-08-23T12:53:44.375Z,36.90
2018-08-23T12:56:12.822Z,36.60
2018-08-23T12:58:41.193Z,36.30
2018-08-23T13:01:09.691Z,36.10
2018-08-23T13:03:38.131Z,36.20
2018-08-23T13:06:06.531Z,36.50
2018-08-23T13:08:34.994Z,36.90
2018-08-23T13:11:03.488Z,37.10
2018-08-23T13:13:31.870Z,36.80
2018-08-23T13:16:00.238Z,37.00
2018-08-23T13:18:28.634Z,36.90
2018-08-23T13:20:57.015Z,36.60
2018-08-23T13:23:25.382Z,36.60
2018-08-23T13:25:54.772Z,36.40
2018-08-23T13:28:23.874Z,36.70
2018-08-23T13:30:52.444Z,36.80
2018-08-23T13:33:20.878Z,36.80
2018-08-23T13:35:49.479Z,36.80
2018-08-23T13:38:18.088Z,36.90
2018-08-23T13:40:46.471Z,36.50
2018-08-23T13:43:14.846Z,36.10
2018-08-23T13:45:43.290Z,36.30
2018-08-23T13:48:11.688Z,36.20
2018-08-23T13:50:40.153Z,36.10
2018-08-23T13:53:08.585Z,35.90
2018-08-23T13:55:37.695Z,35.50
2018-08-23T13:58:06.152Z,35.30
2018-08-23T14:00:40.445Z,35.10
2018-08-23T14:03:09.892Z,35.00
2018-08-23T14:05:40.247Z,35.00
2018-08-23T14:08:08.835Z,35.30
2018-08-23T14:10:37.171Z,35.60
2018-08-23T14:13:05.860Z,36.10
2018-08-23T14:15:39.869Z,36.70
2018-08-23T14:18:08.304Z,37.20
2018-08-23T14:20:36.698Z,37.40
2018-08-23T14:23:05.176Z,37.60
2018-08-23T14:25:33.521Z,37.60
2018-08-23T14:28:02.875Z,37.10
2018-08-23T14:30:31.248Z,36.90
2018-08-23T14:32:59.639Z,37.00
2018-08-23T14:35:28.042Z,36.80
2018-08-23T14:37:56.494Z,36.60
2018-08-23T14:40:25.003Z,36.30
2018-08-23T14:42:53.547Z,35.60
2018-08-23T14:45:27.391Z,35.40
2018-08-23T14:48:01.096Z,35.30
2018-08-23T14:50:30.023Z,35.30
2018-08-23T14:52:58.656Z,35.10
2018-08-23T14:55:32.275Z,35.30
2018-08-23T14:58:00.835Z,35.60
2018-08-23T15:00:29.907Z,35.90
2018-08-23T15:02:58.336Z,36.20
2018-08-23T15:05:26.908Z,36.50
2018-08-23T15:07:55.383Z,36.60
2018-08-23T15:10:23.838Z,36.70
2018-08-23T15:12:52.191Z,36.50
2018-08-23T15:15:24.883Z,36.30
2018-08-23T15:17:53.405Z,36.10
2018-08-23T15:20:21.761Z,35.70
2018-08-23T15:22:50.183Z,35.70
2018-08-23T15:25:18.590Z,35.60
2018-08-23T15:27:46.984Z,35.60
2018-08-23T15:30:15.341Z,35.40
2018-08-23T15:32:43.705Z,35.30
2018-08-23T15:35:12.083Z,35.20
2018-08-23T15:37:40.536Z,35.10
2018-08-23T15:40:08.920Z,35.20
2018-08-23T15:42:37.249Z,35.00
2018-08-23T15:45:05.879Z,35.20
2018-08-23T15:47:34.252Z,35.20
2018-08-23T15:50:02.623Z,35.00
2018-08-23T15:52:30.989Z,35.10
2018-08-23T15:54:59.420Z,35.30
2018-08-23T15:57:27.761Z,35.60
2018-08-23T15:59:56.137Z,35.70
2018-08-23T16:02:24.510Z,35.80
2018-08-23T16:04:53.076Z,35.90
2018-08-23T16:07:21.466Z,35.80
2018-08-23T16:09:49.879Z,35.60
2018-08-23T16:12:18.262Z,35.60
2018-08-23T16:14:46.733Z,35.40
2018-08-23T16:17:20.550Z,35.30
2018-08-23T16:20:51.818Z,35.00
2018-08-23T16:23:20.648Z,34.70
2018-08-23T16:25:49.025Z,34.10
2018-08-23T16:28:17.385Z,33.80
2018-08-23T16:30:45.745Z,33.70
2018-08-23T16:33:14.070Z,33.60
2018-08-23T16:35:42.548Z,33.70
2018-08-23T16:38:11.058Z,33.70
2018-08-23T16:40:39.454Z,33.70
2018-08-23T16:43:07.912Z,33.60
2018-08-23T16:45:36.282Z,33.70
2018-08-23T16:48:04.648Z,33.60
2018-08-23T16:50:33.022Z,33.50
2018-08-23T16:53:01.590Z,33.50
2018-08-23T16:55:29.853Z,33.50
2018-08-23T16:57:58.219Z,33.40
2018-08-23T17:00:26.607Z,33.20
2018-08-23T17:02:55.025Z,33.20
2018-08-23T17:05:23.512Z,33.10
2018-08-23T17:07:51.867Z,33.00
2018-08-23T17:10:20.318Z,33.00
2018-08-23T17:12:48.770Z,32.80
2018-08-23T17:15:17.271Z,32.70
2018-08-23T17:17:52.772Z,32.70
2018-08-23T17:20:21.270Z,32.70
2018-08-23T17:22:49.636Z,32.50
2018-08-23T17:25:18.554Z,32.40
2018-08-23T17:27:46.952Z,32.40
2018-08-23T17:30:15.345Z,32.30
2018-08-23T17:32:43.705Z,32.10
2018-08-23T17:35:12.067Z,31.80
2018-08-23T17:37:40.547Z,31.80
2018-08-23T17:40:08.900Z,31.80
2018-08-23T17:42:44.190Z,31.80
2018-08-23T17:45:13.795Z,31.50
2018-08-23T17:47:42.139Z,31.50
2018-08-23T17:50:10.521Z,31.30
2018-08-23T17:52:38.916Z,31.20
2018-08-23T17:55:07.339Z,31.10
2018-08-23T17:57:35.685Z,31.10
2018-08-23T18:00:04.132Z,31.10
2018-08-23T18:02:32.530Z,31.00
2018-08-23T18:05:00.907Z,30.80
2018-08-23T18:07:29.352Z,30.70
2018-08-23T18:09:57.843Z,30.60
2018-08-23T18:12:26.212Z,30.50
2018-08-23T18:14:54.633Z,30.40
2018-08-23T18:17:23.013Z,30.30
2018-08-23T18:19:51.429Z,30.20
2018-08-23T18:22:19.784Z,30.10
2018-08-23T18:24:48.156Z,30.00
2018-08-23T18:27:16.537Z,29.90
2018-08-23T18:29:44.980Z,29.90
2018-08-23T18:32:13.447Z,29.80
2018-08-23T18:34:41.759Z,29.70
2018-08-23T18:37:10.186Z,29.50
2018-08-23T18:39:38.630Z,29.40
2018-08-23T18:42:13.657Z,29.30
2018-08-23T18:44:42.065Z,29.20
2018-08-23T18:47:10.479Z,29.00
2018-08-23T18:49:38.831Z,28.80
2018-08-23T18:52:07.212Z,28.60
2018-08-23T18:54:35.630Z,28.40
2018-08-23T18:57:04.209Z,28.40
2018-08-23T18:59:32.600Z,28.40
2018-08-23T19:02:01.217Z,28.30
2018-08-23T19:04:29.594Z,28.20
2018-08-23T19:06:57.996Z,28.10
2018-08-23T19:09:26.379Z,27.90
2018-08-23T19:11:54.775Z,27.70
2018-08-23T19:14:23.144Z,27.60
2018-08-23T19:16:57.455Z,27.50
2018-08-23T19:19:25.795Z,27.50
2018-08-23T19:21:54.151Z,27.20
2018-08-23T19:24:22.530Z,27.00
2018-08-23T19:26:50.902Z,26.90
2018-08-23T19:29:19.239Z,26.80
2018-08-23T19:31:47.631Z,26.60
2018-08-23T19:34:16.034Z,26.40
2018-08-23T19:36:44.399Z,26.40
2018-08-23T19:39:13.571Z,26.30
2018-08-23T19:41:42.001Z,26.20
2018-08-23T19:44:10.384Z,25.90
2018-08-23T19:46:44.125Z,25.90
2018-08-23T19:49:17.823Z,25.90
2018-08-23T19:51:46.260Z,26.00
2018-08-23T19:54:14.648Z,26.10
2018-08-23T19:56:43.030Z,26.10
2018-08-23T19:59:11.568Z,26.10
2018-08-23T20:01:40.060Z,26.10
2018-08-23T20:04:08.499Z,26.10
2018-08-23T20:06:37.045Z,26.10
2018-08-23T20:09:07.374Z,26.00
2018-08-23T20:11:35.783Z,25.90
2018-08-23T20:14:04.185Z,25.80
2018-08-23T20:16:32.554Z,25.60
2018-08-23T20:19:00.944Z,25.60
2018-08-23T20:21:29.311Z,25.50
2018-08-23T20:23:57.763Z,25.50
2018-08-23T20:26:26.123Z,25.50
2018-08-23T20:28:54.463Z,25.50
2018-08-23T20:31:22.828Z,25.50
2018-08-23T20:33:51.188Z,25.40
2018-08-23T20:36:19.595Z,25.30
2018-08-23T20:38:48.007Z,25.20
2018-08-23T20:41:16.433Z,25.20
2018-08-23T20:43:44.842Z,25.20
2018-08-23T20:46:13.236Z,25.20
2018-08-23T20:48:41.609Z,25.20
2018-08-23T20:51:09.967Z,25.20
2018-08-23T20:53:38.323Z,25.10
2018-08-23T20:56:06.707Z,25.10
2018-08-23T20:58:35.118Z,24.90
2018-08-23T21:01:03.436Z,24.90
2018-08-23T21:03:31.915Z,24.90
2018-08-23T21:06:00.287Z,24.80
2018-08-23T21:08:28.670Z,24.90
2018-08-23T21:10:57.035Z,24.90
2018-08-23T21:13:25.386Z,24.90
2018-08-23T21:15:53.815Z,25.00
2018-08-23T21:18:22.195Z,25.00
2018-08-23T21:20:50.590Z,24.90
2018-08-23T21:23:18.986Z,24.70
2018-08-23T21:25:47.349Z,24.70
2018-08-23T21:28:15.731Z,24.60
2018-08-23T21:30:44.098Z,24.60
2018-08-23T21:33:12.479Z,24.60
2018-08-23T21:35:40.895Z,24.50
2018-08-23T21:38:09.359Z,24.60
2018-08-23T21:40:37.705Z,24.60
2018-08-23T21:43:06.092Z,24.60
2018-08-23T21:45:34.436Z,24.60
2018-08-23T21:48:03.864Z,24.50
2018-08-23T21:50:32.344Z,24.50
2018-08-23T21:53:00.749Z,24.40
2018-08-23T21:55:34.404Z,24.30
2018-08-23T21:58:03.111Z,24.30
2018-08-23T22:00:35.717Z,24.30
2018-08-23T22:03:04.158Z,24.30
2018-08-23T22:05:32.592Z,24.20
2018-08-23T22:08:00.996Z,24.20
2018-08-23T22:10:29.369Z,24.10
2018-08-23T22:12:57.736Z,24.20
2018-08-23T22:15:26.215Z,24.20
2018-08-23T22:17:54.617Z,24.20
2018-08-23T22:20:23.027Z,24.10
2018-08-23T22:22:51.373Z,24.00
2018-08-23T22:25:19.741Z,23.90
2018-08-23T22:27:48.152Z,24.00
2018-08-23T22:30:16.479Z,24.00
2018-08-23T22:32:45.084Z,23.80
2018-08-23T22:35:13.452Z,23.70
2018-08-23T22:37:41.834Z,23.70
2018-08-23T22:40:10.196Z,23.70
2018-08-23T22:42:38.528Z,23.60
2018-08-23T22:45:06.947Z,23.60
2018-08-23T22:47:35.379Z,23.60
2018-08-23T22:50:04.159Z,23.50
2018-08-23T22:52:32.604Z,23.30
2018-08-23T22:55:01.065Z,23.30
2018-08-23T22:57:29.456Z,23.30
2018-08-23T22:59:57.823Z,23.30
2018-08-23T23:02:31.495Z,23.20
2018-08-23T23:04:59.891Z,23.20
2018-08-23T23:07:28.336Z,23.10
2018-08-23T23:09:56.715Z,23.20
2018-08-23T23:12:25.204Z,23.10
2018-08-23T23:14:53.698Z,23.10
2018-08-23T23:17:22.071Z,23.00
2018-08-23T23:19:50.524Z,23.00
2018-08-23T23:22:18.926Z,22.90
2018-08-23T23:24:52.593Z,22.90
2018-08-23T23:27:21.055Z,22.90
2018-08-23T23:29:49.468Z,22.80
2018-08-23T23:32:17.797Z,22.80
2018-08-23T23:34:46.288Z,22.80
2018-08-23T23:39:49.309Z,23.00
2018-08-23T23:42:17.836Z,23.00
2018-08-23T23:44:46.319Z,23.00
2018-08-23T23:47:14.660Z,23.00
2018-08-23T23:49:43.122Z,23.00
2018-08-23T23:52:11.485Z,22.90
2018-08-23T23:54:39.979Z,22.80
2018-08-23T23:57:08.276Z,22.80
2018-08-23T23:59:36.697Z,22.80
